sensor_id;sensor_type;location;lat;lon;timestamp;P1;durP1;ratioP1;P2;durP2;ratioP2
26622;SDS011;14254;50.968;5.366;2023-07-08T00:01:53;12.18;;;5.55;;
26622;SDS011;14254;50.968;5.366;2023-07-08T00:04:19;10.88;;;5.82;;
26622;SDS011;14254;50.968;5.366;2023-07-08T00:06:45;9.25;;;6.32;;
26622;SDS011;14254;50.968;5.366;2023-07-08T00:09:11;10.23;;;5.97;;
26622;SDS011;14254;50.968;5.366;2023-07-08T00:11:37;12.20;;;5.93;;
26622;SDS011;14254;50.968;5.366;2023-07-08T00:14:03;11.63;;;6.05;;
26622;SDS011;14254;50.968;5.366;2023-07-08T00:16:28;9.98;;;6.20;;
26622;SDS011;14254;50.968;5.366;2023-07-08T00:18:54;9.32;;;6.25;;
26622;SDS011;14254;50.968;5.366;2023-07-08T00:21:20;8.75;;;5.97;;
26622;SDS011;14254;50.968;5.366;2023-07-08T00:23:46;9.77;;;5.30;;
26622;SDS011;14254;50.968;5.366;2023-07-08T00:26:26;10.20;;;5.35;;
26622;SDS011;14254;50.968;5.366;2023-07-08T00:28:53;9.07;;;5.95;;
26622;SDS011;14254;50.968;5.366;2023-07-08T00:31:19;10.48;;;6.13;;
26622;SDS011;14254;50.968;5.366;2023-07-08T00:33:50;7.72;;;5.55;;
26622;SDS011;14254;50.968;5.366;2023-07-08T00:36:17;9.27;;;5.88;;
26622;SDS011;14254;50.968;5.366;2023-07-08T00:38:43;11.15;;;6.18;;
26622;SDS011;14254;50.968;5.366;2023-07-08T00:43:58;14.25;;;6.78;;
26622;SDS011;14254;50.968;5.366;2023-07-08T00:51:54;12.88;;;6.63;;
26622;SDS011;14254;50.968;5.366;2023-07-08T00:54:20;8.32;;;5.90;;
26622;SDS011;14254;50.968;5.366;2023-07-08T00:59:31;10.98;;;6.68;;
26622;SDS011;14254;50.968;5.366;2023-07-08T01:02:01;10.23;;;5.57;;
26622;SDS011;14254;50.968;5.366;2023-07-08T01:04:51;7.85;;;6.00;;
26622;SDS011;14254;50.968;5.366;2023-07-08T01:07:18;9.45;;;6.03;;
26622;SDS011;14254;50.968;5.366;2023-07-08T01:09:46;8.85;;;5.80;;
26622;SDS011;14254;50.968;5.366;2023-07-08T01:12:19;10.60;;;6.18;;
26622;SDS011;14254;50.968;5.366;2023-07-08T01:14:51;12.88;;;6.40;;
26622;SDS011;14254;50.968;5.366;2023-07-08T01:17:19;11.68;;;6.25;;
26622;SDS011;14254;50.968;5.366;2023-07-08T01:19:47;8.25;;;6.03;;
26622;SDS011;14254;50.968;5.366;2023-07-08T01:22:13;13.68;;;6.97;;
26622;SDS011;14254;50.968;5.366;2023-07-08T01:24:40;9.95;;;6.80;;
26622;SDS011;14254;50.968;5.366;2023-07-08T01:27:08;10.27;;;5.25;;
26622;SDS011;14254;50.968;5.366;2023-07-08T01:29:37;10.00;;;6.38;;
26622;SDS011;14254;50.968;5.366;2023-07-08T01:32:03;11.13;;;7.18;;
26622;SDS011;14254;50.968;5.366;2023-07-08T01:34:30;9.07;;;6.35;;
26622;SDS011;14254;50.968;5.366;2023-07-08T01:36:58;16.20;;;7.20;;
26622;SDS011;14254;50.968;5.366;2023-07-08T01:39:27;12.45;;;6.53;;
26622;SDS011;14254;50.968;5.366;2023-07-08T01:41:55;10.45;;;6.45;;
26622;SDS011;14254;50.968;5.366;2023-07-08T01:46:49;13.18;;;7.13;;
26622;SDS011;14254;50.968;5.366;2023-07-08T01:49:17;17.42;;;7.15;;
26622;SDS011;14254;50.968;5.366;2023-07-08T01:51:44;9.15;;;6.35;;
26622;SDS011;14254;50.968;5.366;2023-07-08T01:54:11;12.20;;;7.28;;
26622;SDS011;14254;50.968;5.366;2023-07-08T01:56:36;11.35;;;6.60;;
26622;SDS011;14254;50.968;5.366;2023-07-08T01:59:02;11.27;;;6.47;;
26622;SDS011;14254;50.968;5.366;2023-07-08T02:01:27;8.57;;;6.40;;
26622;SDS011;14254;50.968;5.366;2023-07-08T02:03:53;11.60;;;6.63;;
26622;SDS011;14254;50.968;5.366;2023-07-08T02:06:19;12.82;;;6.85;;
26622;SDS011;14254;50.968;5.366;2023-07-08T02:08:44;15.13;;;7.28;;
26622;SDS011;14254;50.968;5.366;2023-07-08T02:11:10;13.73;;;6.70;;
26622;SDS011;14254;50.968;5.366;2023-07-08T02:13:36;10.23;;;6.85;;
26622;SDS011;14254;50.968;5.366;2023-07-08T02:16:01;12.57;;;6.68;;
26622;SDS011;14254;50.968;5.366;2023-07-08T02:18:27;13.60;;;6.78;;
26622;SDS011;14254;50.968;5.366;2023-07-08T02:20:57;9.77;;;6.75;;
26622;SDS011;14254;50.968;5.366;2023-07-08T02:23:23;11.32;;;6.70;;
26622;SDS011;14254;50.968;5.366;2023-07-08T02:25:52;10.02;;;6.38;;
26622;SDS011;14254;50.968;5.366;2023-07-08T02:28:19;10.73;;;6.50;;
26622;SDS011;14254;50.968;5.366;2023-07-08T02:30:45;9.55;;;6.47;;
26622;SDS011;14254;50.968;5.366;2023-07-08T02:33:13;9.70;;;5.90;;
26622;SDS011;14254;50.968;5.366;2023-07-08T02:35:42;15.27;;;7.00;;
26622;SDS011;14254;50.968;5.366;2023-07-08T02:38:07;11.82;;;6.68;;
26622;SDS011;14254;50.968;5.366;2023-07-08T02:40:33;9.63;;;6.55;;
26622;SDS011;14254;50.968;5.366;2023-07-08T02:42:59;13.20;;;6.38;;
26622;SDS011;14254;50.968;5.366;2023-07-08T02:45:24;9.27;;;6.55;;
26622;SDS011;14254;50.968;5.366;2023-07-08T02:47:50;12.45;;;6.85;;
26622;SDS011;14254;50.968;5.366;2023-07-08T02:50:15;17.65;;;6.80;;
26622;SDS011;14254;50.968;5.366;2023-07-08T02:52:43;9.40;;;6.07;;
26622;SDS011;14254;50.968;5.366;2023-07-08T02:55:09;9.00;;;6.18;;
26622;SDS011;14254;50.968;5.366;2023-07-08T02:57:35;10.88;;;7.00;;
26622;SDS011;14254;50.968;5.366;2023-07-08T03:00:00;9.93;;;6.97;;
26622;SDS011;14254;50.968;5.366;2023-07-08T03:02:29;11.10;;;7.18;;
26622;SDS011;14254;50.968;5.366;2023-07-08T03:04:55;14.45;;;6.57;;
26622;SDS011;14254;50.968;5.366;2023-07-08T03:07:23;12.60;;;6.90;;
26622;SDS011;14254;50.968;5.366;2023-07-08T03:09:49;11.27;;;6.68;;
26622;SDS011;14254;50.968;5.366;2023-07-08T03:12:15;12.63;;;7.00;;
26622;SDS011;14254;50.968;5.366;2023-07-08T03:14:41;9.73;;;6.10;;
26622;SDS011;14254;50.968;5.366;2023-07-08T03:17:07;9.88;;;6.50;;
26622;SDS011;14254;50.968;5.366;2023-07-08T03:19:32;10.50;;;6.05;;
26622;SDS011;14254;50.968;5.366;2023-07-08T03:21:58;15.00;;;7.07;;
26622;SDS011;14254;50.968;5.366;2023-07-08T03:24:24;14.82;;;6.45;;
26622;SDS011;14254;50.968;5.366;2023-07-08T03:26:49;11.02;;;6.18;;
26622;SDS011;14254;50.968;5.366;2023-07-08T03:29:19;10.02;;;5.95;;
26622;SDS011;14254;50.968;5.366;2023-07-08T03:31:45;12.32;;;6.68;;
26622;SDS011;14254;50.968;5.366;2023-07-08T03:34:15;10.43;;;6.97;;
26622;SDS011;14254;50.968;5.366;2023-07-08T03:36:45;8.48;;;6.47;;
26622;SDS011;14254;50.968;5.366;2023-07-08T03:39:15;11.93;;;6.93;;
26622;SDS011;14254;50.968;5.366;2023-07-08T03:41:42;11.90;;;6.28;;
26622;SDS011;14254;50.968;5.366;2023-07-08T03:44:08;10.85;;;6.10;;
26622;SDS011;14254;50.968;5.366;2023-07-08T03:46:34;13.80;;;6.75;;
26622;SDS011;14254;50.968;5.366;2023-07-08T03:49:00;16.08;;;6.93;;
26622;SDS011;14254;50.968;5.366;2023-07-08T03:51:26;13.18;;;6.68;;
26622;SDS011;14254;50.968;5.366;2023-07-08T03:53:54;8.20;;;5.80;;
26622;SDS011;14254;50.968;5.366;2023-07-08T03:56:20;9.48;;;6.40;;
26622;SDS011;14254;50.968;5.366;2023-07-08T03:58:46;10.05;;;7.15;;
26622;SDS011;14254;50.968;5.366;2023-07-08T04:01:15;10.23;;;6.32;;
26622;SDS011;14254;50.968;5.366;2023-07-08T04:03:46;9.43;;;6.38;;
26622;SDS011;14254;50.968;5.366;2023-07-08T04:06:13;11.75;;;6.53;;
26622;SDS011;14254;50.968;5.366;2023-07-08T04:08:39;8.05;;;6.22;;
26622;SDS011;14254;50.968;5.366;2023-07-08T04:11:05;17.08;;;7.60;;
26622;SDS011;14254;50.968;5.366;2023-07-08T04:13:31;9.48;;;6.43;;
26622;SDS011;14254;50.968;5.366;2023-07-08T04:16:01;11.80;;;6.47;;
26622;SDS011;14254;50.968;5.366;2023-07-08T04:18:29;17.33;;;7.10;;
26622;SDS011;14254;50.968;5.366;2023-07-08T04:20:55;14.43;;;7.47;;
26622;SDS011;14254;50.968;5.366;2023-07-08T04:23:21;13.77;;;7.05;;
26622;SDS011;14254;50.968;5.366;2023-07-08T04:25:48;14.90;;;6.93;;
26622;SDS011;14254;50.968;5.366;2023-07-08T04:28:15;11.27;;;6.72;;
26622;SDS011;14254;50.968;5.366;2023-07-08T04:30:42;15.77;;;6.97;;
26622;SDS011;14254;50.968;5.366;2023-07-08T04:33:08;11.65;;;6.80;;
26622;SDS011;14254;50.968;5.366;2023-07-08T04:35:35;15.88;;;7.38;;
26622;SDS011;14254;50.968;5.366;2023-07-08T04:38:03;10.98;;;6.40;;
26622;SDS011;14254;50.968;5.366;2023-07-08T04:40:37;11.77;;;7.18;;
26622;SDS011;14254;50.968;5.366;2023-07-08T04:43:05;11.57;;;6.85;;
26622;SDS011;14254;50.968;5.366;2023-07-08T04:45:31;9.77;;;6.55;;
26622;SDS011;14254;50.968;5.366;2023-07-08T04:47:57;9.65;;;6.47;;
26622;SDS011;14254;50.968;5.366;2023-07-08T04:50:22;13.93;;;7.22;;
26622;SDS011;14254;50.968;5.366;2023-07-08T04:52:48;9.98;;;6.95;;
26622;SDS011;14254;50.968;5.366;2023-07-08T04:55:14;13.02;;;6.90;;
26622;SDS011;14254;50.968;5.366;2023-07-08T04:57:40;18.05;;;7.63;;
26622;SDS011;14254;50.968;5.366;2023-07-08T05:00:07;12.70;;;7.10;;
26622;SDS011;14254;50.968;5.366;2023-07-08T05:02:37;11.37;;;6.60;;
26622;SDS011;14254;50.968;5.366;2023-07-08T05:05:03;9.93;;;6.35;;
26622;SDS011;14254;50.968;5.366;2023-07-08T05:07:29;9.43;;;6.28;;
26622;SDS011;14254;50.968;5.366;2023-07-08T05:09:54;10.63;;;7.00;;
26622;SDS011;14254;50.968;5.366;2023-07-08T05:12:21;10.88;;;7.05;;
26622;SDS011;14254;50.968;5.366;2023-07-08T05:14:46;11.23;;;7.00;;
26622;SDS011;14254;50.968;5.366;2023-07-08T05:17:12;11.30;;;6.95;;
26622;SDS011;14254;50.968;5.366;2023-07-08T05:19:38;11.40;;;6.78;;
26622;SDS011;14254;50.968;5.366;2023-07-08T05:22:05;19.30;;;6.80;;
26622;SDS011;14254;50.968;5.366;2023-07-08T05:24:31;15.38;;;7.15;;
26622;SDS011;14254;50.968;5.366;2023-07-08T05:26:57;10.02;;;6.78;;
26622;SDS011;14254;50.968;5.366;2023-07-08T05:29:23;13.02;;;7.13;;
26622;SDS011;14254;50.968;5.366;2023-07-08T05:31:49;14.52;;;8.18;;
26622;SDS011;14254;50.968;5.366;2023-07-08T05:34:15;12.07;;;7.65;;
26622;SDS011;14254;50.968;5.366;2023-07-08T05:36:40;10.80;;;6.65;;
26622;SDS011;14254;50.968;5.366;2023-07-08T05:39:06;17.67;;;8.15;;
26622;SDS011;14254;50.968;5.366;2023-07-08T05:41:32;13.80;;;8.10;;
26622;SDS011;14254;50.968;5.366;2023-07-08T05:43:58;15.48;;;7.82;;
26622;SDS011;14254;50.968;5.366;2023-07-08T05:46:24;14.27;;;7.70;;
26622;SDS011;14254;50.968;5.366;2023-07-08T05:48:49;11.77;;;8.63;;
26622;SDS011;14254;50.968;5.366;2023-07-08T05:51:16;14.05;;;8.18;;
26622;SDS011;14254;50.968;5.366;2023-07-08T05:53:42;14.10;;;8.48;;
26622;SDS011;14254;50.968;5.366;2023-07-08T05:56:07;17.70;;;8.38;;
26622;SDS011;14254;50.968;5.366;2023-07-08T05:58:33;14.95;;;8.15;;
26622;SDS011;14254;50.968;5.366;2023-07-08T06:00:59;13.73;;;7.95;;
26622;SDS011;14254;50.968;5.366;2023-07-08T06:03:24;10.73;;;7.65;;
26622;SDS011;14254;50.968;5.366;2023-07-08T06:05:50;16.33;;;8.43;;
26622;SDS011;14254;50.968;5.366;2023-07-08T06:08:16;16.95;;;8.00;;
26622;SDS011;14254;50.968;5.366;2023-07-08T06:10:43;10.52;;;8.13;;
26622;SDS011;14254;50.968;5.366;2023-07-08T06:13:10;13.98;;;9.18;;
26622;SDS011;14254;50.968;5.366;2023-07-08T06:15:36;17.33;;;8.23;;
26622;SDS011;14254;50.968;5.366;2023-07-08T06:18:02;13.23;;;7.75;;
26622;SDS011;14254;50.968;5.366;2023-07-08T06:20:28;16.70;;;8.50;;
26622;SDS011;14254;50.968;5.366;2023-07-08T06:22:54;11.27;;;8.35;;
26622;SDS011;14254;50.968;5.366;2023-07-08T06:25:20;13.63;;;8.48;;
26622;SDS011;14254;50.968;5.366;2023-07-08T06:27:46;18.73;;;9.63;;
26622;SDS011;14254;50.968;5.366;2023-07-08T06:30:12;12.18;;;8.68;;
26622;SDS011;14254;50.968;5.366;2023-07-08T06:32:37;14.20;;;8.95;;
26622;SDS011;14254;50.968;5.366;2023-07-08T06:35:03;16.30;;;9.63;;
26622;SDS011;14254;50.968;5.366;2023-07-08T06:37:29;11.90;;;9.05;;
26622;SDS011;14254;50.968;5.366;2023-07-08T06:39:55;15.93;;;9.25;;
26622;SDS011;14254;50.968;5.366;2023-07-08T06:42:20;15.95;;;8.85;;
26622;SDS011;14254;50.968;5.366;2023-07-08T06:44:46;12.20;;;8.35;;
26622;SDS011;14254;50.968;5.366;2023-07-08T06:47:18;18.92;;;8.77;;
26622;SDS011;14254;50.968;5.366;2023-07-08T06:49:48;12.48;;;8.82;;
26622;SDS011;14254;50.968;5.366;2023-07-08T06:52:14;12.57;;;8.77;;
26622;SDS011;14254;50.968;5.366;2023-07-08T06:54:40;19.73;;;8.93;;
26622;SDS011;14254;50.968;5.366;2023-07-08T06:57:06;11.80;;;8.00;;
26622;SDS011;14254;50.968;5.366;2023-07-08T06:59:32;17.45;;;9.68;;
26622;SDS011;14254;50.968;5.366;2023-07-08T07:01:58;15.20;;;8.75;;
26622;SDS011;14254;50.968;5.366;2023-07-08T07:04:24;14.20;;;7.90;;
26622;SDS011;14254;50.968;5.366;2023-07-08T07:06:49;14.10;;;8.68;;
26622;SDS011;14254;50.968;5.366;2023-07-08T07:09:15;18.95;;;9.85;;
26622;SDS011;14254;50.968;5.366;2023-07-08T07:11:41;16.98;;;9.38;;
26622;SDS011;14254;50.968;5.366;2023-07-08T07:14:06;16.55;;;10.02;;
26622;SDS011;14254;50.968;5.366;2023-07-08T07:16:32;21.35;;;9.32;;
26622;SDS011;14254;50.968;5.366;2023-07-08T07:18:58;16.00;;;9.82;;
26622;SDS011;14254;50.968;5.366;2023-07-08T07:21:23;14.77;;;9.00;;
26622;SDS011;14254;50.968;5.366;2023-07-08T07:23:49;18.20;;;9.90;;
26622;SDS011;14254;50.968;5.366;2023-07-08T07:26:15;18.85;;;10.48;;
26622;SDS011;14254;50.968;5.366;2023-07-08T07:28:40;16.80;;;9.73;;
26622;SDS011;14254;50.968;5.366;2023-07-08T07:31:06;17.00;;;10.30;;
26622;SDS011;14254;50.968;5.366;2023-07-08T07:33:32;13.95;;;10.23;;
26622;SDS011;14254;50.968;5.366;2023-07-08T07:35:58;15.50;;;9.73;;
26622;SDS011;14254;50.968;5.366;2023-07-08T07:38:24;19.55;;;9.38;;
26622;SDS011;14254;50.968;5.366;2023-07-08T07:40:53;20.05;;;10.35;;
26622;SDS011;14254;50.968;5.366;2023-07-08T07:43:20;14.98;;;10.00;;
26622;SDS011;14254;50.968;5.366;2023-07-08T07:45:49;16.90;;;10.23;;
26622;SDS011;14254;50.968;5.366;2023-07-08T07:48:18;18.73;;;9.50;;
26622;SDS011;14254;50.968;5.366;2023-07-08T07:50:45;13.48;;;9.70;;
26622;SDS011;14254;50.968;5.366;2023-07-08T07:53:11;18.98;;;9.93;;
26622;SDS011;14254;50.968;5.366;2023-07-08T07:55:37;15.57;;;9.05;;
26622;SDS011;14254;50.968;5.366;2023-07-08T07:58:03;16.17;;;9.20;;
26622;SDS011;14254;50.968;5.366;2023-07-08T08:00:30;16.17;;;9.57;;
26622;SDS011;14254;50.968;5.366;2023-07-08T08:02:55;13.57;;;9.55;;
26622;SDS011;14254;50.968;5.366;2023-07-08T08:05:21;17.00;;;10.05;;
26622;SDS011;14254;50.968;5.366;2023-07-08T08:07:47;16.17;;;9.43;;
26622;SDS011;14254;50.968;5.366;2023-07-08T08:10:13;19.42;;;10.38;;
26622;SDS011;14254;50.968;5.366;2023-07-08T08:12:39;19.75;;;10.52;;
26622;SDS011;14254;50.968;5.366;2023-07-08T08:15:05;21.15;;;11.45;;
26622;SDS011;14254;50.968;5.366;2023-07-08T08:17:31;15.13;;;10.05;;
26622;SDS011;14254;50.968;5.366;2023-07-08T08:19:56;14.48;;;9.85;;
26622;SDS011;14254;50.968;5.366;2023-07-08T08:22:22;12.77;;;9.27;;
26622;SDS011;14254;50.968;5.366;2023-07-08T08:24:48;15.13;;;9.35;;
26622;SDS011;14254;50.968;5.366;2023-07-08T08:27:14;23.35;;;9.57;;
26622;SDS011;14254;50.968;5.366;2023-07-08T08:29:40;16.52;;;9.50;;
26622;SDS011;14254;50.968;5.366;2023-07-08T08:32:06;12.98;;;9.13;;
26622;SDS011;14254;50.968;5.366;2023-07-08T08:34:32;15.75;;;9.95;;
26622;SDS011;14254;50.968;5.366;2023-07-08T08:36:57;12.70;;;8.73;;
26622;SDS011;14254;50.968;5.366;2023-07-08T08:39:23;14.68;;;9.73;;
26622;SDS011;14254;50.968;5.366;2023-07-08T08:41:51;13.40;;;9.98;;
26622;SDS011;14254;50.968;5.366;2023-07-08T08:44:20;15.75;;;9.90;;
26622;SDS011;14254;50.968;5.366;2023-07-08T08:47:00;15.15;;;10.75;;
26622;SDS011;14254;50.968;5.366;2023-07-08T08:49:48;17.00;;;10.05;;
26622;SDS011;14254;50.968;5.366;2023-07-08T08:52:21;13.40;;;9.52;;
26622;SDS011;14254;50.968;5.366;2023-07-08T08:54:46;17.85;;;10.43;;
26622;SDS011;14254;50.968;5.366;2023-07-08T08:59:50;16.58;;;10.65;;
26622;SDS011;14254;50.968;5.366;2023-07-08T09:04:53;18.10;;;11.00;;
26622;SDS011;14254;50.968;5.366;2023-07-08T09:07:21;15.13;;;10.32;;
26622;SDS011;14254;50.968;5.366;2023-07-08T09:09:50;16.08;;;10.57;;
26622;SDS011;14254;50.968;5.366;2023-07-08T09:12:35;15.95;;;10.27;;
26622;SDS011;14254;50.968;5.366;2023-07-08T09:15:09;13.23;;;10.27;;
26622;SDS011;14254;50.968;5.366;2023-07-08T09:17:38;16.13;;;9.85;;
26622;SDS011;14254;50.968;5.366;2023-07-08T09:20:23;14.25;;;9.95;;
26622;SDS011;14254;50.968;5.366;2023-07-08T09:23:03;15.95;;;9.27;;
26622;SDS011;14254;50.968;5.366;2023-07-08T09:25:43;11.63;;;9.10;;
26622;SDS011;14254;50.968;5.366;2023-07-08T09:28:19;13.57;;;8.90;;
26622;SDS011;14254;50.968;5.366;2023-07-08T09:30:48;14.55;;;9.57;;
26622;SDS011;14254;50.968;5.366;2023-07-08T09:33:18;12.60;;;8.25;;
26622;SDS011;14254;50.968;5.366;2023-07-08T09:35:45;15.15;;;9.02;;
26622;SDS011;14254;50.968;5.366;2023-07-08T09:38:16;13.13;;;9.43;;
26622;SDS011;14254;50.968;5.366;2023-07-08T09:40:47;12.10;;;9.00;;
26622;SDS011;14254;50.968;5.366;2023-07-08T09:46:01;14.30;;;7.88;;
26622;SDS011;14254;50.968;5.366;2023-07-08T09:48:28;15.18;;;9.10;;
26622;SDS011;14254;50.968;5.366;2023-07-08T09:50:57;14.27;;;8.87;;
26622;SDS011;14254;50.968;5.366;2023-07-08T09:53:24;12.40;;;8.77;;
26622;SDS011;14254;50.968;5.366;2023-07-08T09:55:51;13.60;;;9.02;;
26622;SDS011;14254;50.968;5.366;2023-07-08T09:58:23;17.95;;;9.07;;
26622;SDS011;14254;50.968;5.366;2023-07-08T10:00:51;14.07;;;8.50;;
26622;SDS011;14254;50.968;5.366;2023-07-08T10:03:21;14.50;;;9.25;;
26622;SDS011;14254;50.968;5.366;2023-07-08T10:05:49;12.15;;;8.15;;
26622;SDS011;14254;50.968;5.366;2023-07-08T10:08:21;13.27;;;7.97;;
26622;SDS011;14254;50.968;5.366;2023-07-08T10:10:58;16.85;;;8.80;;
26622;SDS011;14254;50.968;5.366;2023-07-08T10:18:47;12.50;;;8.15;;
26622;SDS011;14254;50.968;5.366;2023-07-08T10:32:00;12.40;;;8.05;;
26622;SDS011;14254;50.968;5.366;2023-07-08T10:34:45;13.23;;;8.32;;
26622;SDS011;14254;50.968;5.366;2023-07-08T10:39:55;13.80;;;9.18;;
26622;SDS011;14254;50.968;5.366;2023-07-08T10:42:52;14.85;;;9.48;;
26622;SDS011;14254;50.968;5.366;2023-07-08T10:53:45;15.00;;;8.88;;
26622;SDS011;14254;50.968;5.366;2023-07-08T10:56:38;11.95;;;8.00;;
26622;SDS011;14254;50.968;5.366;2023-07-08T10:59:30;16.45;;;8.65;;
26622;SDS011;14254;50.968;5.366;2023-07-08T11:02:18;11.02;;;7.43;;
26622;SDS011;14254;50.968;5.366;2023-07-08T11:05:31;13.60;;;8.10;;
26622;SDS011;14254;50.968;5.366;2023-07-08T11:08:25;13.18;;;8.60;;
26622;SDS011;14254;50.968;5.366;2023-07-08T11:13:47;14.35;;;8.38;;
26622;SDS011;14254;50.968;5.366;2023-07-08T11:16:22;10.15;;;7.55;;
26622;SDS011;14254;50.968;5.366;2023-07-08T11:21:29;11.73;;;8.18;;
26622;SDS011;14254;50.968;5.366;2023-07-08T11:24:01;10.00;;;6.85;;
26622;SDS011;14254;50.968;5.366;2023-07-08T11:27:02;17.88;;;8.18;;
26622;SDS011;14254;50.968;5.366;2023-07-08T11:29:37;15.30;;;7.95;;
26622;SDS011;14254;50.968;5.366;2023-07-08T11:32:09;15.57;;;7.80;;
26622;SDS011;14254;50.968;5.366;2023-07-08T11:34:39;13.18;;;8.15;;
26622;SDS011;14254;50.968;5.366;2023-07-08T11:37:08;11.65;;;7.82;;
26622;SDS011;14254;50.968;5.366;2023-07-08T11:39:42;10.32;;;8.02;;
26622;SDS011;14254;50.968;5.366;2023-07-08T11:42:19;10.48;;;7.25;;
26622;SDS011;14254;50.968;5.366;2023-07-08T11:44:56;10.32;;;8.07;;
26622;SDS011;14254;50.968;5.366;2023-07-08T11:47:38;11.50;;;8.30;;
26622;SDS011;14254;50.968;5.366;2023-07-08T11:53:08;9.98;;;7.40;;
26622;SDS011;14254;50.968;5.366;2023-07-08T11:55:37;13.55;;;7.72;;
26622;SDS011;14254;50.968;5.366;2023-07-08T11:58:13;9.70;;;7.07;;
26622;SDS011;14254;50.968;5.366;2023-07-08T12:00:52;13.05;;;7.13;;
26622;SDS011;14254;50.968;5.366;2023-07-08T12:03:28;10.93;;;7.65;;
26622;SDS011;14254;50.968;5.366;2023-07-08T12:06:01;9.70;;;7.60;;
26622;SDS011;14254;50.968;5.366;2023-07-08T12:08:36;8.70;;;6.80;;
26622;SDS011;14254;50.968;5.366;2023-07-08T12:11:07;10.35;;;7.60;;
26622;SDS011;14254;50.968;5.366;2023-07-08T12:13:36;8.45;;;7.53;;
26622;SDS011;14254;50.968;5.366;2023-07-08T12:16:02;11.38;;;6.90;;
26622;SDS011;14254;50.968;5.366;2023-07-08T12:18:30;12.68;;;7.18;;
26622;SDS011;14254;50.968;5.366;2023-07-08T12:20:59;13.25;;;7.72;;
26622;SDS011;14254;50.968;5.366;2023-07-08T12:23:26;8.70;;;7.32;;
26622;SDS011;14254;50.968;5.366;2023-07-08T12:25:53;9.38;;;6.47;;
26622;SDS011;14254;50.968;5.366;2023-07-08T12:28:20;10.90;;;6.93;;
26622;SDS011;14254;50.968;5.366;2023-07-08T12:30:47;9.82;;;6.68;;
26622;SDS011;14254;50.968;5.366;2023-07-08T12:33:18;10.68;;;6.88;;
26622;SDS011;14254;50.968;5.366;2023-07-08T12:35:55;10.98;;;7.45;;
26622;SDS011;14254;50.968;5.366;2023-07-08T12:38:24;10.88;;;6.88;;
26622;SDS011;14254;50.968;5.366;2023-07-08T12:40:52;10.10;;;6.93;;
26622;SDS011;14254;50.968;5.366;2023-07-08T12:43:18;13.63;;;7.32;;
26622;SDS011;14254;50.968;5.366;2023-07-08T12:45:44;12.48;;;7.97;;
26622;SDS011;14254;50.968;5.366;2023-07-08T12:48:10;9.95;;;6.85;;
26622;SDS011;14254;50.968;5.366;2023-07-08T12:50:36;10.02;;;6.30;;
26622;SDS011;14254;50.968;5.366;2023-07-08T12:53:03;8.15;;;6.68;;
26622;SDS011;14254;50.968;5.366;2023-07-08T12:55:34;12.30;;;6.63;;
26622;SDS011;14254;50.968;5.366;2023-07-08T12:58:01;9.52;;;7.22;;
26622;SDS011;14254;50.968;5.366;2023-07-08T13:00:28;11.75;;;6.85;;
26622;SDS011;14254;50.968;5.366;2023-07-08T13:05:49;9.25;;;6.60;;
26622;SDS011;14254;50.968;5.366;2023-07-08T13:08:17;10.10;;;6.20;;
26622;SDS011;14254;50.968;5.366;2023-07-08T13:10:45;9.07;;;7.60;;
26622;SDS011;14254;50.968;5.366;2023-07-08T13:13:15;8.90;;;6.40;;
26622;SDS011;14254;50.968;5.366;2023-07-08T13:15:45;9.52;;;7.03;;
26622;SDS011;14254;50.968;5.366;2023-07-08T13:18:15;13.13;;;6.95;;
26622;SDS011;14254;50.968;5.366;2023-07-08T13:20:48;11.98;;;6.65;;
26622;SDS011;14254;50.968;5.366;2023-07-08T13:23:17;10.57;;;7.60;;
26622;SDS011;14254;50.968;5.366;2023-07-08T13:25:44;11.15;;;7.18;;
26622;SDS011;14254;50.968;5.366;2023-07-08T13:28:18;9.55;;;7.22;;
26622;SDS011;14254;50.968;5.366;2023-07-08T13:30:51;11.90;;;7.57;;
26622;SDS011;14254;50.968;5.366;2023-07-08T13:33:22;11.15;;;7.05;;
26622;SDS011;14254;50.968;5.366;2023-07-08T13:35:49;13.23;;;7.70;;
26622;SDS011;14254;50.968;5.366;2023-07-08T13:38:20;7.97;;;6.70;;
26622;SDS011;14254;50.968;5.366;2023-07-08T13:40:53;10.20;;;7.35;;
26622;SDS011;14254;50.968;5.366;2023-07-08T13:43:25;10.60;;;7.18;;
26622;SDS011;14254;50.968;5.366;2023-07-08T13:45:54;14.30;;;7.43;;
26622;SDS011;14254;50.968;5.366;2023-07-08T13:51:17;11.38;;;7.15;;
26622;SDS011;14254;50.968;5.366;2023-07-08T13:53:48;12.30;;;6.80;;
26622;SDS011;14254;50.968;5.366;2023-07-08T13:56:27;13.02;;;7.43;;
26622;SDS011;14254;50.968;5.366;2023-07-08T13:59:02;11.20;;;7.13;;
26622;SDS011;14254;50.968;5.366;2023-07-08T14:01:33;16.17;;;7.00;;
26622;SDS011;14254;50.968;5.366;2023-07-08T14:04:01;13.40;;;7.78;;
26622;SDS011;14254;50.968;5.366;2023-07-08T14:06:29;15.00;;;7.72;;
26622;SDS011;14254;50.968;5.366;2023-07-08T14:09:33;9.88;;;7.20;;
26622;SDS011;14254;50.968;5.366;2023-07-08T14:11:52;13.23;;;7.63;;
26622;SDS011;14254;50.968;5.366;2023-07-08T14:14:18;10.60;;;7.15;;
26622;SDS011;14254;50.968;5.366;2023-07-08T14:16:46;10.95;;;7.28;;
26622;SDS011;14254;50.968;5.366;2023-07-08T14:19:22;10.13;;;6.85;;
26622;SDS011;14254;50.968;5.366;2023-07-08T14:21:51;12.07;;;7.18;;
26622;SDS011;14254;50.968;5.366;2023-07-08T14:24:20;10.80;;;7.45;;
26622;SDS011;14254;50.968;5.366;2023-07-08T14:26:46;13.90;;;7.28;;
26622;SDS011;14254;50.968;5.366;2023-07-08T14:29:12;14.07;;;7.20;;
26622;SDS011;14254;50.968;5.366;2023-07-08T14:31:38;12.70;;;6.93;;
26622;SDS011;14254;50.968;5.366;2023-07-08T14:34:06;15.25;;;7.28;;
26622;SDS011;14254;50.968;5.366;2023-07-08T14:36:33;10.85;;;6.63;;
26622;SDS011;14254;50.968;5.366;2023-07-08T14:39:00;7.65;;;6.45;;
26622;SDS011;14254;50.968;5.366;2023-07-08T14:41:26;9.30;;;6.57;;
26622;SDS011;14254;50.968;5.366;2023-07-08T14:43:54;12.55;;;6.45;;
26622;SDS011;14254;50.968;5.366;2023-07-08T14:46:19;12.50;;;6.20;;
26622;SDS011;14254;50.968;5.366;2023-07-08T14:48:45;10.55;;;5.88;;
26622;SDS011;14254;50.968;5.366;2023-07-08T14:51:11;6.57;;;5.05;;
26622;SDS011;14254;50.968;5.366;2023-07-08T14:53:36;7.82;;;5.47;;
26622;SDS011;14254;50.968;5.366;2023-07-08T14:56:08;6.68;;;5.28;;
26622;SDS011;14254;50.968;5.366;2023-07-08T14:58:39;12.68;;;5.32;;
26622;SDS011;14254;50.968;5.366;2023-07-08T15:01:08;8.70;;;5.53;;
26622;SDS011;14254;50.968;5.366;2023-07-08T15:03:43;7.03;;;5.15;;
26622;SDS011;14254;50.968;5.366;2023-07-08T15:06:12;9.38;;;5.60;;
26622;SDS011;14254;50.968;5.366;2023-07-08T15:08:38;10.73;;;5.55;;
26622;SDS011;14254;50.968;5.366;2023-07-08T15:11:04;11.05;;;5.50;;
26622;SDS011;14254;50.968;5.366;2023-07-08T15:13:33;8.55;;;5.43;;
26622;SDS011;14254;50.968;5.366;2023-07-08T15:15:59;9.00;;;5.85;;
26622;SDS011;14254;50.968;5.366;2023-07-08T15:18:25;11.25;;;5.80;;
26622;SDS011;14254;50.968;5.366;2023-07-08T15:20:51;7.30;;;5.38;;
26622;SDS011;14254;50.968;5.366;2023-07-08T15:23:17;8.63;;;5.55;;
26622;SDS011;14254;50.968;5.366;2023-07-08T15:25:44;8.52;;;5.57;;
26622;SDS011;14254;50.968;5.366;2023-07-08T15:28:15;7.03;;;4.78;;
26622;SDS011;14254;50.968;5.366;2023-07-08T15:31:05;7.47;;;5.90;;
26622;SDS011;14254;50.968;5.366;2023-07-08T15:33:33;9.20;;;5.97;;
26622;SDS011;14254;50.968;5.366;2023-07-08T15:35:58;8.82;;;5.45;;
26622;SDS011;14254;50.968;5.366;2023-07-08T15:38:24;8.07;;;5.60;;
26622;SDS011;14254;50.968;5.366;2023-07-08T15:40:50;9.73;;;6.28;;
26622;SDS011;14254;50.968;5.366;2023-07-08T15:43:17;10.93;;;6.65;;
26622;SDS011;14254;50.968;5.366;2023-07-08T15:45:43;8.85;;;6.65;;
26622;SDS011;14254;50.968;5.366;2023-07-08T15:48:12;7.80;;;6.32;;